createdAt,value
2023-02-09T00:00:29.735Z,7.97
2023-02-09T00:05:34.530Z,8.43
2023-02-09T00:10:40.203Z,10.15
2023-02-09T00:15:50.177Z,8.15
2023-02-09T00:21:02.621Z,11.48
2023-02-09T00:26:08.552Z,7.85
2023-02-09T00:31:13.840Z,12.57
2023-02-09T00:36:18.994Z,11.60
2023-02-09T00:41:43.066Z,11.10
2023-02-09T00:46:46.409Z,10.77
2023-02-09T00:51:51.529Z,12.43
2023-02-09T00:56:54.894Z,10.88
2023-02-09T01:01:58.575Z,10.13
2023-02-09T01:07:03.479Z,11.13
2023-02-09T01:12:07.547Z,9.90
2023-02-09T01:17:11.472Z,13.77
2023-02-09T01:22:16.710Z,10.13
2023-02-09T01:27:20.681Z,10.25
2023-02-09T01:32:24.249Z,10.90
2023-02-09T01:37:29.076Z,10.80
2023-02-09T01:42:32.529Z,10.95
2023-02-09T01:47:43.349Z,12.63
2023-02-09T01:52:49.634Z,12.45
2023-02-09T01:57:57.647Z,13.48
2023-02-09T02:03:05.699Z,16.13
2023-02-09T02:08:17.563Z,16.75
2023-02-09T02:13:21.725Z,18.15
2023-02-09T02:18:46.668Z,18.27
2023-02-09T02:24:07.403Z,15.68
2023-02-09T02:29:51.044Z,13.35
2023-02-09T02:35:02.915Z,12.30
2023-02-09T02:40:15.371Z,13.73
2023-02-09T02:45:30.642Z,15.35
2023-02-09T02:50:38.894Z,14.25
2023-02-09T02:55:46.292Z,15.18
2023-02-09T03:00:53.554Z,15.45
2023-02-09T03:06:00.482Z,13.75
2023-02-09T03:11:04.010Z,15.93
2023-02-09T03:16:22.595Z,15.85
2023-02-09T03:21:37.932Z,19.42
2023-02-09T03:26:46.987Z,16.48
2023-02-09T03:31:51.649Z,15.82
2023-02-09T03:36:58.864Z,22.60
2023-02-09T03:42:02.207Z,17.85
2023-02-09T03:47:08.071Z,19.98
2023-02-09T03:52:14.911Z,18.45
2023-02-09T03:57:18.474Z,16.85
2023-02-09T04:02:22.122Z,19.40
2023-02-09T04:07:26.932Z,16.85
2023-02-09T04:12:30.321Z,14.63
2023-02-09T04:17:33.767Z,16.58
2023-02-09T04:22:38.639Z,16.25
2023-02-09T04:32:45.341Z,17.98
2023-02-09T04:37:50.248Z,15.20
2023-02-09T04:42:53.920Z,15.38
2023-02-09T04:47:57.307Z,17.48
2023-02-09T04:53:02.443Z,14.75
2023-02-09T04:58:23.520Z,15.07
2023-02-09T05:03:27.864Z,15.95
2023-02-09T05:08:33.289Z,30.38
2023-02-09T05:13:36.717Z,20.33
2023-02-09T05:18:40.114Z,17.83
2023-02-09T05:23:45.097Z,16.27
2023-02-09T05:28:48.535Z,16.70
2023-02-09T05:33:51.870Z,17.08
2023-02-09T05:38:56.612Z,19.52
2023-02-09T05:43:59.990Z,17.75
2023-02-09T05:49:03.656Z,18.98
2023-02-09T05:54:08.562Z,19.45
2023-02-09T06:04:15.148Z,19.17
2023-02-09T06:09:20.677Z,17.45
2023-02-09T06:14:24.201Z,18.48
2023-02-09T06:19:27.552Z,19.42
2023-02-09T06:24:32.361Z,19.35
2023-02-09T06:29:35.907Z,18.88
2023-02-09T06:34:39.430Z,17.92
2023-02-09T06:39:44.383Z,20.80
2023-02-09T06:49:50.995Z,17.02
2023-02-09T06:54:56.116Z,18.63
2023-02-09T07:05:02.827Z,16.98
2023-02-09T07:10:10.311Z,19.25
2023-02-09T07:15:15.414Z,17.27
2023-02-09T07:20:19.021Z,16.48
2023-02-09T07:25:23.829Z,16.20
2023-02-09T07:30:27.182Z,14.55
2023-02-09T07:35:30.543Z,15.05
2023-02-09T07:40:35.337Z,15.95
2023-02-09T07:45:38.764Z,15.82
2023-02-09T07:50:42.116Z,16.20
2023-02-09T07:55:47.226Z,12.52
2023-02-09T08:00:52.015Z,15.15
2023-02-09T08:06:00.262Z,12.95
2023-02-09T08:11:05.740Z,12.23
2023-02-09T08:16:14.172Z,14.43
2023-02-09T08:21:19.560Z,14.95
2023-02-09T08:26:24.872Z,13.15
2023-02-09T08:31:28.453Z,13.90
2023-02-09T08:36:34.470Z,11.95
2023-02-09T08:41:39.372Z,14.95
2023-02-09T08:51:46.217Z,15.55
2023-02-09T08:56:51.157Z,19.08
2023-02-09T09:06:58.685Z,17.33
2023-02-09T09:12:03.609Z,17.77
2023-02-09T09:22:10.266Z,16.52
2023-02-09T09:27:15.016Z,15.85
2023-02-09T09:32:18.925Z,16.58
2023-02-09T09:37:22.591Z,16.57
2023-02-09T09:42:35.912Z,15.20
2023-02-09T09:47:41.686Z,17.55
2023-02-09T09:52:48.567Z,16.25
2023-02-09T09:57:58.500Z,19.00
2023-02-09T10:03:01.859Z,17.42
2023-02-09T10:08:12.042Z,16.55
2023-02-09T10:13:22.374Z,17.17
2023-02-09T10:18:26.676Z,17.63
2023-02-09T10:23:40.017Z,16.60
2023-02-09T10:28:47.070Z,15.00
2023-02-09T10:33:55.754Z,17.10
2023-02-09T10:39:16.852Z,18.88
2023-02-09T10:44:25.608Z,16.92
2023-02-09T10:49:35.454Z,16.23
2023-02-09T10:54:43.247Z,16.10
2023-02-09T10:59:52.708Z,12.77
2023-02-09T11:04:56.147Z,13.45
2023-02-09T11:10:01.257Z,15.38
2023-02-09T11:15:13.950Z,13.43
2023-02-09T11:20:24.719Z,16.83
2023-02-09T11:25:30.348Z,15.85
2023-02-09T11:30:53.077Z,16.60
2023-02-09T11:36:10.188Z,15.75
2023-02-09T11:41:35.026Z,16.13
2023-02-09T11:46:42.070Z,15.57
2023-02-09T11:51:47.716Z,13.20
2023-02-09T11:56:54.461Z,14.20
2023-02-09T12:02:06.389Z,13.85
2023-02-09T12:07:19.502Z,12.65
2023-02-09T12:12:30.477Z,13.45
2023-02-09T12:17:43.412Z,11.85
2023-02-09T12:22:58.191Z,14.23
2023-02-09T12:28:19.816Z,15.40
2023-02-09T12:33:31.496Z,14.10
2023-02-09T12:39:07.390Z,14.98
2023-02-09T12:44:39.544Z,12.18
2023-02-09T12:49:45.163Z,12.80
2023-02-09T12:54:52.221Z,10.82
2023-02-09T13:00:43.104Z,12.82
2023-02-09T13:05:50.275Z,13.48
2023-02-09T13:10:58.997Z,11.65
2023-02-09T13:16:43.697Z,14.13
2023-02-09T13:22:00.635Z,13.97
2023-02-09T13:27:04.492Z,12.10
2023-02-09T13:32:22.137Z,13.55
2023-02-09T13:37:34.471Z,11.63
2023-02-09T13:42:38.441Z,12.00
2023-02-09T13:47:44.192Z,12.00
2023-02-09T13:52:50.854Z,14.05
2023-02-09T13:58:00.337Z,14.05
2023-02-09T14:03:12.467Z,15.75
2023-02-09T14:08:19.653Z,13.38
2023-02-09T14:13:26.481Z,15.40
2023-02-09T14:18:33.382Z,12.27
2023-02-09T14:23:38.473Z,13.50
2023-02-09T14:28:42.692Z,13.98
2023-02-09T14:33:49.127Z,14.60
2023-02-09T14:38:54.527Z,14.13
2023-02-09T14:44:03.548Z,14.40
2023-02-09T14:49:06.892Z,17.45
2023-02-09T14:54:24.127Z,15.75
2023-02-09T14:59:27.566Z,17.27
2023-02-09T15:04:30.952Z,15.77
2023-02-09T15:09:39.229Z,14.27
2023-02-09T15:14:45.294Z,15.32
2023-02-09T15:19:49.072Z,16.30
2023-02-09T15:24:54.716Z,13.70
2023-02-09T15:30:00.520Z,14.32
2023-02-09T15:35:08.908Z,13.75
2023-02-09T15:40:39.643Z,11.93
2023-02-09T15:46:00.376Z,16.35
2023-02-09T15:51:04.819Z,13.43
2023-02-09T15:56:10.572Z,12.52
2023-02-09T16:01:16.955Z,9.07
2023-02-09T16:06:24.864Z,7.38
2023-02-09T16:11:33.300Z,9.35
2023-02-09T16:16:36.994Z,9.85
2023-02-09T16:21:42.750Z,11.13
2023-02-09T16:26:47.867Z,11.82
2023-02-09T16:31:51.472Z,11.40
2023-02-09T16:36:54.981Z,13.88
2023-02-09T16:42:01.236Z,14.23
2023-02-09T16:47:11.106Z,14.38
2023-02-09T16:52:18.098Z,13.95
2023-02-09T16:57:24.388Z,9.77
2023-02-09T17:02:38.139Z,11.43
2023-02-09T17:07:53.565Z,11.98
2023-02-09T17:13:01.926Z,8.50
2023-02-09T17:18:08.251Z,10.18
2023-02-09T17:23:16.296Z,8.30
2023-02-09T17:28:21.097Z,8.75
2023-02-09T17:38:31.274Z,9.45
2023-02-09T17:43:36.335Z,7.97
2023-02-09T17:53:43.004Z,9.50
2023-02-09T17:58:48.407Z,8.00
2023-02-09T18:03:51.927Z,7.82
2023-02-09T18:08:55.514Z,10.00
2023-02-09T18:14:00.444Z,8.45
2023-02-09T18:24:07.861Z,7.25
2023-02-09T18:29:12.630Z,8.15
2023-02-09T18:34:16.441Z,7.50
2023-02-09T18:39:19.869Z,6.00
2023-02-09T18:44:29.404Z,6.15
2023-02-09T18:49:32.961Z,4.40
2023-02-09T18:54:37.059Z,3.85
2023-02-09T18:59:41.842Z,4.67
2023-02-09T19:04:45.325Z,5.15
2023-02-09T19:09:48.925Z,5.20
2023-02-09T19:14:53.912Z,4.63
2023-02-09T19:19:59.137Z,4.55
2023-02-09T19:25:02.632Z,5.90
2023-02-09T19:30:09.095Z,3.15
2023-02-09T19:35:12.658Z,3.63
2023-02-09T19:40:21.695Z,4.57
2023-02-09T19:45:26.633Z,4.88
2023-02-09T19:50:30.210Z,3.47
2023-02-09T19:55:33.867Z,3.83
2023-02-09T20:00:39.595Z,4.45
2023-02-09T20:05:43.609Z,3.22
2023-02-09T20:10:47.677Z,5.73
2023-02-09T20:15:52.665Z,3.67
2023-02-09T20:20:56.194Z,3.28
2023-02-09T20:25:59.596Z,4.13
2023-02-09T20:31:04.541Z,5.95
2023-02-09T20:36:09.740Z,6.50
2023-02-09T20:41:15.317Z,4.50
2023-02-09T20:46:42.447Z,4.63
2023-02-09T20:51:47.065Z,4.32
2023-02-09T20:56:50.979Z,4.85
2023-02-09T21:01:55.920Z,5.27
2023-02-09T21:12:04.084Z,5.27
2023-02-09T21:17:09.020Z,4.70
2023-02-09T21:22:12.444Z,6.90
2023-02-09T21:27:16.118Z,6.53
2023-02-09T21:32:21.167Z,7.07
2023-02-09T21:37:24.531Z,5.13
2023-02-09T21:42:28.929Z,6.15
2023-02-09T21:47:36.175Z,7.03
2023-02-09T21:52:39.713Z,6.53
2023-02-09T21:57:43.046Z,8.60
2023-02-09T22:02:47.994Z,8.40
2023-02-09T22:12:54.555Z,6.45
2023-02-09T22:17:59.297Z,7.43
2023-02-09T22:23:02.830Z,7.78
2023-02-09T22:28:06.909Z,9.07
2023-02-09T22:33:11.779Z,7.97
2023-02-09T22:43:18.436Z,8.75
2023-02-09T22:48:23.323Z,11.52
2023-02-09T22:58:31.271Z,8.35
2023-02-09T23:03:36.785Z,8.98
2023-02-09T23:08:40.162Z,8.00
2023-02-09T23:13:44.176Z,7.97
2023-02-09T23:18:50.635Z,10.80
2023-02-09T23:23:54.856Z,10.20
2023-02-09T23:29:00.173Z,10.10
2023-02-09T23:34:05.689Z,9.18
2023-02-09T23:39:09.050Z,7.88
2023-02-09T23:44:13.443Z,9.60
2023-02-09T23:49:18.334Z,8.20
2023-02-09T23:59:25.078Z,9.13
